Terminal Aerodrome Forecast
Issued by NWS Mt. Holly, NJ

Home | Current Version | Previous Version | Text Only | Print | Product List | Glossary On
Versions: 1 2 3 4 5 6 7 8 9 10 11 12 13 14 15 16 17 18 19 20 21 22 23 24 25 26 27 28 29 30 31 32
939
FTUS41 KPHI 171737
TAFPHL
TAF
KPHL 171737Z 1718/1824 12006KT 4SM -RA BR OVC008
     FM172200 11004KT 2SM -RA BR OVC005
     FM180100 VRB03KT 1SM -DZ BR OVC003
     FM181000 31006KT 3SM BR BKN005 OVC015
     FM181500 31008KT P6SM BKN015
     FM181700 32010G18KT P6SM BKN035=

USA.gov is the U.S. government's official web portal to all federal, state and local government web resources and services.